Main page
METAR-TAF:

METAR-TAF

Airports :

International Airport Irkutsk

Irkutsk, Russia

latitude: 52-16N, longitude: 104-19E, elevation: 513 m

Current weather observation

The report was made 38 minutes ago, at 21:30 UTC
Wind 4 kt from the East/Northeast
Temperature 18°C
Humidity 100%
Pressure 1001 hPa
Visibility: 5000 m
mist

METAR: UIII 192130Z 07002MPS 5000 BR NSC 18/18 Q1001 R12/60D NOSIG RMK QFE709/0945

Time: 06:08 (22:08 UTC)

Forecast

The report was made 2 hours and 8 minutes ago, at 20:00 UTC
Forecast valid from 19 at 21 UTC to 20 at 21 UTC
Wind 2 kt from variable directions
Visibility 10 km or more
Scattered clouds at a height of 5000 ft, Cumulonimbus.
Temporary
from 19 at 21 UTC to 19 at 24 UTC
Visibility: 0500 m
at a height of 100 ft
fog,

TAF: UIII 192000Z 1921/2021 VRB01MPS 9999 SCT050CB TEMPO 1921/1924 0500 FG VV001

Weather observations and forecasts of more than 4000 airports (METAR and TAF reports).

The available stations are represented by yellow and red dots on the map.

Hover mouse over dot to see the name of the station.

Then click to see weather observations and forecasts.

To change the map : click on the green buttons with a black cross to zoom in, on the green button with a dash to zoom out, or on the green arrows for adjacent maps.


METAR-TAF: